createdAt,value
2023-03-07T00:00:35.895Z,18.70
2023-03-07T00:03:02.576Z,18.70
2023-03-07T00:05:29.386Z,18.70
2023-03-07T00:07:55.975Z,18.70
2023-03-07T00:10:22.601Z,18.70
2023-03-07T00:12:49.225Z,18.70
2023-03-07T00:15:15.891Z,18.70
2023-03-07T00:17:42.523Z,18.70
2023-03-07T00:20:16.861Z,18.70
2023-03-07T00:22:44.154Z,18.70
2023-03-07T00:25:11.132Z,18.70
2023-03-07T00:27:37.764Z,18.70
2023-03-07T00:30:05.761Z,18.70
2023-03-07T00:32:32.817Z,18.70
2023-03-07T00:35:00.430Z,18.60
2023-03-07T00:37:27.038Z,18.60
2023-03-07T00:39:54.196Z,18.60
2023-03-07T00:42:20.858Z,18.60
2023-03-07T00:44:47.467Z,18.60
2023-03-07T00:47:14.090Z,18.60
2023-03-07T00:49:40.692Z,18.60
2023-03-07T00:52:07.299Z,18.60
2023-03-07T00:54:33.900Z,18.60
2023-03-07T00:57:00.509Z,18.60
2023-03-07T00:59:27.079Z,18.60
2023-03-07T01:01:53.708Z,18.60
2023-03-07T01:04:20.322Z,18.60
2023-03-07T01:06:46.956Z,18.60
2023-03-07T01:09:13.538Z,18.60
2023-03-07T01:11:40.181Z,18.60
2023-03-07T01:14:07.085Z,18.60
2023-03-07T01:16:36.123Z,18.50
2023-03-07T01:19:06.107Z,18.60
2023-03-07T01:21:38.861Z,18.50
2023-03-07T01:24:06.575Z,18.50
2023-03-07T01:26:34.491Z,18.50
2023-03-07T01:29:03.876Z,18.50
2023-03-07T01:31:32.375Z,18.50
2023-03-07T01:34:01.994Z,18.50
2023-03-07T01:36:31.437Z,19.10
2023-03-07T01:39:06.312Z,18.50
2023-03-07T01:41:37.358Z,18.50
2023-03-07T01:44:13.213Z,18.50
2023-03-07T01:46:53.326Z,18.50
2023-03-07T01:49:28.454Z,18.50
2023-03-07T01:52:19.058Z,18.50
2023-03-07T01:54:50.318Z,18.50
2023-03-07T01:57:19.772Z,18.50
2023-03-07T01:59:49.366Z,18.50
2023-03-07T02:02:19.593Z,18.50
2023-03-07T02:05:09.358Z,18.50
2023-03-07T02:07:41.944Z,18.50
2023-03-07T02:10:11.389Z,18.50
2023-03-07T02:12:39.150Z,18.50
2023-03-07T02:15:07.341Z,18.40
2023-03-07T02:17:34.019Z,18.40
2023-03-07T02:20:30.003Z,18.40
2023-03-07T02:22:56.996Z,18.50
2023-03-07T02:25:41.556Z,18.50
2023-03-07T02:28:12.340Z,18.40
2023-03-07T02:30:51.891Z,18.50
2023-03-07T02:33:18.898Z,18.40
2023-03-07T02:35:45.583Z,18.40
2023-03-07T02:38:12.244Z,18.40
2023-03-07T02:40:39.984Z,18.40
2023-03-07T02:43:09.497Z,18.40
2023-03-07T02:45:36.234Z,18.40
2023-03-07T02:48:02.937Z,18.40
2023-03-07T02:50:29.616Z,18.40
2023-03-07T02:52:56.710Z,18.40
2023-03-07T02:55:23.341Z,18.40
2023-03-07T02:57:49.999Z,18.40
2023-03-07T03:00:17.368Z,18.40
2023-03-07T03:02:44.003Z,18.40
2023-03-07T03:05:10.746Z,18.40
2023-03-07T03:07:37.610Z,18.40
2023-03-07T03:10:04.834Z,18.40
2023-03-07T03:12:31.437Z,18.40
2023-03-07T03:14:58.095Z,18.40
2023-03-07T03:17:24.725Z,18.40
2023-03-07T03:19:51.339Z,18.40
2023-03-07T03:22:18.025Z,18.40
2023-03-07T03:24:44.632Z,18.40
2023-03-07T03:27:11.272Z,18.40
2023-03-07T03:29:37.860Z,18.40
2023-03-07T03:32:04.867Z,18.40
2023-03-07T03:34:31.731Z,18.40
2023-03-07T03:36:58.349Z,18.40
2023-03-07T03:39:24.975Z,18.40
2023-03-07T03:41:51.545Z,18.40
2023-03-07T03:44:18.185Z,18.40
2023-03-07T03:46:44.842Z,18.40
2023-03-07T03:49:16.551Z,18.40
2023-03-07T03:51:43.156Z,18.40
2023-03-07T03:54:10.061Z,18.40
2023-03-07T03:56:36.743Z,18.50
2023-03-07T03:59:03.396Z,18.40
2023-03-07T04:01:30.377Z,18.50
2023-03-07T04:03:57.989Z,18.50
2023-03-07T04:06:30.320Z,18.50
2023-03-07T04:08:57.425Z,18.50
2023-03-07T04:11:24.833Z,18.40
2023-03-07T04:13:52.055Z,18.40
2023-03-07T04:16:19.153Z,18.40
2023-03-07T04:18:45.901Z,18.40
2023-03-07T04:21:12.889Z,18.40
2023-03-07T04:23:39.797Z,18.40
2023-03-07T04:26:08.746Z,18.40
2023-03-07T04:28:49.024Z,18.40
2023-03-07T04:31:24.341Z,18.40
2023-03-07T04:33:52.396Z,18.40
2023-03-07T04:36:19.725Z,18.40
2023-03-07T04:38:47.477Z,18.40
2023-03-07T04:41:23.011Z,18.40
2023-03-07T04:43:49.660Z,18.50
2023-03-07T04:46:17.908Z,18.40
2023-03-07T04:48:45.849Z,20.10
2023-03-07T04:51:13.134Z,18.40
2023-03-07T04:53:39.778Z,18.40
2023-03-07T04:56:08.823Z,18.40
2023-03-07T04:58:36.496Z,18.40
2023-03-07T05:01:05.252Z,18.40
2023-03-07T05:03:32.618Z,18.50
2023-03-07T05:06:17.423Z,17.30
2023-03-07T05:08:44.114Z,16.20
2023-03-07T05:11:10.746Z,15.50
2023-03-07T05:16:05.063Z,14.90
2023-03-07T05:18:31.675Z,15.60
2023-03-07T05:20:58.407Z,16.40
2023-03-07T05:23:25.283Z,17.10
2023-03-07T05:25:52.034Z,17.50
2023-03-07T05:28:19.395Z,17.80
2023-03-07T05:30:46.649Z,18.00
2023-03-07T05:33:13.761Z,18.10
2023-03-07T05:35:40.479Z,18.20
2023-03-07T05:38:08.060Z,18.30
2023-03-07T05:40:34.958Z,18.30
2023-03-07T05:43:01.912Z,18.40
2023-03-07T05:45:28.551Z,18.40
2023-03-07T05:47:55.152Z,18.50
2023-03-07T05:50:22.307Z,18.50
2023-03-07T05:52:49.032Z,18.60
2023-03-07T05:55:15.694Z,18.60
2023-03-07T05:57:42.275Z,18.70
2023-03-07T06:00:09.748Z,18.70
2023-03-07T06:02:36.363Z,18.70
2023-03-07T06:05:03.000Z,18.70
2023-03-07T06:07:30.630Z,18.80
2023-03-07T06:09:57.254Z,18.80
2023-03-07T06:12:23.882Z,18.70
2023-03-07T06:14:50.488Z,18.70
2023-03-07T06:17:17.119Z,18.70
2023-03-07T06:19:43.798Z,18.70
2023-03-07T06:22:10.470Z,18.70
2023-03-07T06:24:37.226Z,18.80
2023-03-07T06:27:03.937Z,18.80
2023-03-07T06:29:30.583Z,18.80
2023-03-07T06:31:57.206Z,18.80
2023-03-07T06:34:24.046Z,18.80
2023-03-07T06:36:50.746Z,18.80
2023-03-07T06:39:20.928Z,18.90
2023-03-07T06:41:48.856Z,18.80
2023-03-07T06:44:16.938Z,18.80
2023-03-07T06:46:44.787Z,18.80
2023-03-07T06:49:11.706Z,18.90
2023-03-07T06:51:38.569Z,18.90
2023-03-07T06:54:05.197Z,18.90
2023-03-07T06:56:34.188Z,18.90
2023-03-07T06:59:01.307Z,18.90
2023-03-07T07:01:28.102Z,18.60
2023-03-07T07:03:54.783Z,19.00
2023-03-07T07:06:21.441Z,18.90
2023-03-07T07:08:48.116Z,19.00
2023-03-07T07:11:14.732Z,19.00
2023-03-07T07:13:41.368Z,18.90
2023-03-07T07:16:08.730Z,19.00
2023-03-07T07:18:35.609Z,19.00
2023-03-07T07:21:02.290Z,19.00
2023-03-07T07:23:29.124Z,19.00
2023-03-07T07:25:55.813Z,19.00
2023-03-07T07:28:22.559Z,19.10
2023-03-07T07:30:49.238Z,19.10
2023-03-07T07:33:16.321Z,19.10
2023-03-07T07:35:46.916Z,19.10
2023-03-07T07:38:13.935Z,19.30
2023-03-07T07:40:40.633Z,19.40
2023-03-07T07:43:07.277Z,19.50
2023-03-07T07:45:33.930Z,19.50
2023-03-07T07:48:00.552Z,19.60
2023-03-07T07:50:27.318Z,19.60
2023-03-07T07:52:54.310Z,19.70
2023-03-07T07:55:21.701Z,19.70
2023-03-07T07:57:48.306Z,19.70
2023-03-07T08:00:19.393Z,19.70
2023-03-07T08:02:50.304Z,19.80
2023-03-07T08:05:19.297Z,19.80
2023-03-07T08:07:46.345Z,19.80
2023-03-07T08:10:17.652Z,19.80
2023-03-07T08:12:45.621Z,19.80
2023-03-07T08:15:12.561Z,19.90
2023-03-07T08:17:39.250Z,19.90
2023-03-07T08:20:09.987Z,19.90
2023-03-07T08:22:37.335Z,20.00
2023-03-07T08:25:05.556Z,19.90
2023-03-07T08:27:32.314Z,20.00
2023-03-07T08:30:00.336Z,20.00
2023-03-07T08:32:27.967Z,20.00
2023-03-07T08:34:54.642Z,20.00
2023-03-07T08:37:21.357Z,20.00
2023-03-07T08:39:47.987Z,20.10
2023-03-07T08:42:14.642Z,20.10
2023-03-07T08:44:41.318Z,20.10
2023-03-07T08:47:08.490Z,19.90
2023-03-07T08:49:35.070Z,19.70
2023-03-07T08:52:01.664Z,19.70
2023-03-07T08:54:28.902Z,19.60
2023-03-07T08:56:55.823Z,19.60
2023-03-07T08:59:22.407Z,19.50
2023-03-07T09:01:49.202Z,19.60
2023-03-07T09:04:15.932Z,19.60
2023-03-07T09:06:42.533Z,19.50
2023-03-07T09:09:09.219Z,19.60
2023-03-07T09:11:36.079Z,19.50
2023-03-07T09:14:02.673Z,19.50
2023-03-07T09:16:29.313Z,19.50
2023-03-07T09:18:55.936Z,19.50
2023-03-07T09:21:22.606Z,19.60
2023-03-07T09:23:49.517Z,19.60
2023-03-07T09:26:16.178Z,19.60
2023-03-07T09:28:42.835Z,19.60
2023-03-07T09:31:11.636Z,19.60
2023-03-07T09:33:38.571Z,19.60
2023-03-07T09:36:10.485Z,19.60
2023-03-07T09:38:38.093Z,19.60
2023-03-07T09:41:39.134Z,19.60
2023-03-07T09:44:36.628Z,19.60
2023-03-07T09:47:38.017Z,19.60
2023-03-07T09:50:18.027Z,19.60
2023-03-07T09:52:44.928Z,19.60
2023-03-07T09:55:17.013Z,19.60
2023-03-07T09:57:55.259Z,19.70
2023-03-07T10:00:31.354Z,19.70
2023-03-07T10:03:25.400Z,19.70
2023-03-07T10:05:54.676Z,19.70
2023-03-07T10:08:32.810Z,19.70
2023-03-07T10:11:33.342Z,19.70
2023-03-07T10:14:12.168Z,19.70
2023-03-07T10:16:50.794Z,19.70
2023-03-07T10:19:27.483Z,19.70
2023-03-07T10:22:09.229Z,19.70
2023-03-07T10:25:07.953Z,19.70
2023-03-07T10:27:34.602Z,19.70
2023-03-07T10:30:11.538Z,19.70
2023-03-07T10:32:44.117Z,19.70
2023-03-07T10:35:17.038Z,19.70
2023-03-07T10:38:14.927Z,19.70
2023-03-07T10:41:15.100Z,19.70
2023-03-07T10:43:44.321Z,19.70
2023-03-07T10:46:27.838Z,19.80
2023-03-07T10:49:09.444Z,19.80
2023-03-07T10:51:42.610Z,19.90
2023-03-07T10:54:16.130Z,19.80
2023-03-07T10:57:06.735Z,19.80
2023-03-07T10:59:34.083Z,19.80
2023-03-07T11:02:02.605Z,19.90
2023-03-07T11:04:42.430Z,19.90
2023-03-07T11:07:31.984Z,19.90
2023-03-07T11:10:00.634Z,19.90
2023-03-07T11:12:29.374Z,19.90
2023-03-07T11:15:08.639Z,19.90
2023-03-07T11:17:43.651Z,19.90
2023-03-07T11:20:24.994Z,19.90
2023-03-07T11:23:26.108Z,19.80
2023-03-07T11:25:55.033Z,19.90
2023-03-07T11:28:33.322Z,19.90
2023-03-07T11:31:16.693Z,19.80
2023-03-07T11:34:11.589Z,19.80
2023-03-07T11:36:40.178Z,19.90
2023-03-07T11:39:25.255Z,19.90
2023-03-07T11:42:04.346Z,19.90
2023-03-07T11:45:11.857Z,19.90
2023-03-07T11:47:49.683Z,19.80
2023-03-07T11:50:23.561Z,19.80
2023-03-07T11:53:14.130Z,19.90
2023-03-07T11:55:57.698Z,19.80
2023-03-07T11:58:41.426Z,19.80
2023-03-07T12:01:16.345Z,19.80
2023-03-07T12:04:01.044Z,19.80
2023-03-07T12:06:35.503Z,19.80
2023-03-07T12:09:13.955Z,19.80
2023-03-07T12:12:17.560Z,19.80
2023-03-07T12:15:10.760Z,19.80
2023-03-07T12:17:55.293Z,19.80
2023-03-07T12:20:41.329Z,19.90
2023-03-07T12:23:20.822Z,19.80
2023-03-07T12:25:51.512Z,19.80
2023-03-07T12:28:20.958Z,19.80
2023-03-07T12:31:00.478Z,19.80
2023-03-07T12:33:43.247Z,19.80
2023-03-07T12:36:36.130Z,19.80
2023-03-07T12:39:45.218Z,19.80
2023-03-07T12:42:23.744Z,19.90
2023-03-07T12:45:00.746Z,19.90
2023-03-07T12:50:54.884Z,19.80
2023-03-07T12:53:38.273Z,19.90
2023-03-07T12:56:15.281Z,20.00
2023-03-07T12:58:41.955Z,20.00
2023-03-07T13:01:21.429Z,19.90
2023-03-07T13:04:15.936Z,19.90
2023-03-07T13:06:44.674Z,19.90
2023-03-07T13:09:25.982Z,19.90
2023-03-07T13:12:09.881Z,19.90
2023-03-07T13:14:48.200Z,19.90
2023-03-07T13:17:26.770Z,19.90
2023-03-07T13:19:57.541Z,19.90
2023-03-07T13:22:24.141Z,19.90
2023-03-07T13:24:57.357Z,20.00
2023-03-07T13:27:48.303Z,20.20
2023-03-07T13:30:25.419Z,20.30
2023-03-07T13:32:52.140Z,20.40
2023-03-07T13:35:28.041Z,20.40
2023-03-07T13:37:57.746Z,20.50
2023-03-07T13:40:27.204Z,20.50
2023-03-07T13:42:53.921Z,20.60
2023-03-07T13:45:38.815Z,20.60
2023-03-07T13:48:28.231Z,20.60
2023-03-07T13:50:54.806Z,20.60
2023-03-07T13:53:33.419Z,20.40
2023-03-07T13:56:09.091Z,20.50
2023-03-07T13:58:57.431Z,20.50
2023-03-07T14:01:45.913Z,20.60
2023-03-07T14:04:15.319Z,20.60
2023-03-07T14:06:45.192Z,20.60
2023-03-07T14:09:17.874Z,20.70
2023-03-07T14:12:09.384Z,20.70
2023-03-07T14:14:45.442Z,20.70
2023-03-07T14:17:12.004Z,20.70
2023-03-07T14:20:09.389Z,20.70
2023-03-07T14:23:00.231Z,20.70
2023-03-07T14:25:31.653Z,20.80
2023-03-07T14:28:05.608Z,20.80
2023-03-07T14:30:33.799Z,20.80
2023-03-07T14:33:01.207Z,20.80
2023-03-07T14:35:33.540Z,20.80
2023-03-07T14:38:00.489Z,20.80
2023-03-07T14:40:41.006Z,20.80
2023-03-07T14:43:18.320Z,20.80
2023-03-07T14:45:55.212Z,20.80
2023-03-07T14:48:33.158Z,20.90
2023-03-07T14:51:15.692Z,20.90
2023-03-07T14:53:43.003Z,20.90
2023-03-07T14:56:10.579Z,20.90
2023-03-07T14:58:52.200Z,20.90
2023-03-07T15:01:19.607Z,20.90
2023-03-07T15:03:47.611Z,20.90
2023-03-07T15:06:17.781Z,20.90
2023-03-07T15:08:44.895Z,20.90
2023-03-07T15:11:40.178Z,21.00
2023-03-07T15:14:21.429Z,21.00
2023-03-07T15:16:57.493Z,21.00
2023-03-07T15:19:54.981Z,21.00
2023-03-07T15:22:27.617Z,21.00
2023-03-07T15:24:54.422Z,21.10
2023-03-07T15:27:30.695Z,21.00
2023-03-07T15:30:00.361Z,21.10
2023-03-07T15:32:38.112Z,21.10
2023-03-07T15:35:13.325Z,21.20
2023-03-07T15:37:53.559Z,21.20
2023-03-07T15:40:27.416Z,21.20
2023-03-07T15:42:55.828Z,21.20
2023-03-07T15:45:35.921Z,21.20
2023-03-07T15:48:11.278Z,21.20
2023-03-07T15:50:38.232Z,21.20
2023-03-07T15:53:30.724Z,21.20
2023-03-07T15:56:20.712Z,21.20
2023-03-07T15:58:49.641Z,21.20
2023-03-07T16:01:24.851Z,21.20
2023-03-07T16:04:00.676Z,21.30
2023-03-07T16:06:41.966Z,21.20
2023-03-07T16:09:13.883Z,21.20
2023-03-07T16:11:41.317Z,21.30
2023-03-07T16:14:34.044Z,21.20
2023-03-07T16:17:04.501Z,21.30
2023-03-07T16:19:32.017Z,21.20
2023-03-07T16:21:58.697Z,21.20
2023-03-07T16:24:25.325Z,21.20
2023-03-07T16:26:51.968Z,21.10
2023-03-07T16:29:21.824Z,21.20
2023-03-07T16:31:48.946Z,21.20
2023-03-07T16:34:20.943Z,21.20
2023-03-07T16:36:48.023Z,21.10
2023-03-07T16:39:15.471Z,20.80
2023-03-07T16:41:46.921Z,20.60
2023-03-07T16:44:18.900Z,20.50
2023-03-07T16:46:51.475Z,20.50
2023-03-07T16:49:18.483Z,20.60
2023-03-07T16:51:48.974Z,21.30
2023-03-07T16:54:20.013Z,20.80
2023-03-07T16:56:49.983Z,20.80
2023-03-07T16:59:22.285Z,20.90
2023-03-07T17:01:51.591Z,20.90
2023-03-07T17:04:18.262Z,20.90
2023-03-07T17:06:47.341Z,21.00
2023-03-07T17:09:15.354Z,21.00
2023-03-07T17:11:48.244Z,21.10
2023-03-07T17:14:16.958Z,21.10
2023-03-07T17:16:48.919Z,21.10
2023-03-07T17:19:32.530Z,21.10
2023-03-07T17:22:00.445Z,21.10
2023-03-07T17:24:29.042Z,21.10
2023-03-07T17:26:57.918Z,21.10
2023-03-07T17:29:36.681Z,21.10
2023-03-07T17:32:03.994Z,21.00
2023-03-07T17:34:32.560Z,21.10
2023-03-07T17:37:00.303Z,21.10
2023-03-07T17:39:30.616Z,21.10
2023-03-07T17:41:58.779Z,21.00
2023-03-07T17:44:25.558Z,21.00
2023-03-07T17:46:53.145Z,21.00
2023-03-07T17:49:20.924Z,21.10
2023-03-07T17:51:48.698Z,21.10
2023-03-07T17:54:16.063Z,21.00
2023-03-07T17:56:42.670Z,21.00
2023-03-07T17:59:09.421Z,21.00
2023-03-07T18:01:36.178Z,20.90
2023-03-07T18:04:04.430Z,20.80
2023-03-07T18:06:36.621Z,20.70
2023-03-07T18:09:06.290Z,20.70
2023-03-07T18:11:34.253Z,20.60
2023-03-07T18:14:01.515Z,20.60
2023-03-07T18:16:28.176Z,20.70
2023-03-07T18:19:00.241Z,20.70
2023-03-07T18:21:29.513Z,20.70
2023-03-07T18:23:56.553Z,20.70
2023-03-07T18:26:23.608Z,20.60
2023-03-07T18:28:53.100Z,20.60
2023-03-07T18:31:25.410Z,20.60
2023-03-07T18:33:54.014Z,20.60
2023-03-07T18:36:23.929Z,20.60
2023-03-07T18:38:51.203Z,20.60
2023-03-07T18:41:23.011Z,20.60
2023-03-07T18:43:49.894Z,20.60
2023-03-07T18:46:19.206Z,20.60
2023-03-07T18:48:46.492Z,20.60
2023-03-07T18:51:15.939Z,20.60
2023-03-07T18:53:43.168Z,20.60
2023-03-07T18:56:12.817Z,20.60
2023-03-07T18:58:40.218Z,20.60
2023-03-07T19:01:16.393Z,20.60
2023-03-07T19:03:44.731Z,20.60
2023-03-07T19:06:12.704Z,20.60
2023-03-07T19:08:40.041Z,20.60
2023-03-07T19:11:09.318Z,20.60
2023-03-07T19:13:36.275Z,20.60
2023-03-07T19:16:07.366Z,20.60
2023-03-07T19:18:35.301Z,20.60
2023-03-07T19:21:16.051Z,20.60
2023-03-07T19:23:42.695Z,20.60
2023-03-07T19:26:13.227Z,20.60
2023-03-07T19:28:40.436Z,20.60
2023-03-07T19:31:09.365Z,20.60
2023-03-07T19:33:37.612Z,20.60
2023-03-07T19:36:28.704Z,20.60
2023-03-07T19:38:58.774Z,20.60
2023-03-07T19:41:27.454Z,20.60
2023-03-07T19:43:56.282Z,20.60
2023-03-07T19:46:23.234Z,20.60
2023-03-07T19:48:50.325Z,20.60
2023-03-07T19:51:19.530Z,20.60
2023-03-07T19:53:46.864Z,20.50
2023-03-07T19:56:28.999Z,20.60
2023-03-07T19:58:57.125Z,20.50
2023-03-07T20:01:24.392Z,20.50
2023-03-07T20:03:51.406Z,20.50
2023-03-07T20:06:26.457Z,20.50
2023-03-07T20:08:54.409Z,20.50
2023-03-07T20:11:27.285Z,20.50
2023-03-07T20:13:56.388Z,20.40
2023-03-07T20:16:23.663Z,20.50
2023-03-07T20:18:51.731Z,20.50
2023-03-07T20:21:19.382Z,20.50
2023-03-07T20:23:48.186Z,20.50
2023-03-07T20:26:23.519Z,20.50
2023-03-07T20:28:55.608Z,20.50
2023-03-07T20:31:22.791Z,20.50
2023-03-07T20:33:49.781Z,20.40
2023-03-07T20:36:23.807Z,20.50
2023-03-07T20:38:52.808Z,20.50
2023-03-07T20:41:22.233Z,20.40
2023-03-07T20:43:50.525Z,20.40
2023-03-07T20:46:19.009Z,20.40
2023-03-07T20:48:46.775Z,20.40
2023-03-07T20:51:20.822Z,20.40
2023-03-07T20:53:49.467Z,20.40
2023-03-07T20:56:16.901Z,20.30
2023-03-07T20:58:43.974Z,20.30
2023-03-07T21:01:11.968Z,20.30
2023-03-07T21:03:38.763Z,20.30
2023-03-07T21:06:05.990Z,20.30
2023-03-07T21:08:34.701Z,20.30
2023-03-07T21:11:06.740Z,20.30
2023-03-07T21:13:37.196Z,20.30
2023-03-07T21:16:06.830Z,20.30
2023-03-07T21:18:33.870Z,20.30
2023-03-07T21:21:12.416Z,20.30
2023-03-07T21:23:39.256Z,20.20
2023-03-07T21:26:07.062Z,20.20
2023-03-07T21:28:34.645Z,20.20
2023-03-07T21:31:06.700Z,20.20
2023-03-07T21:33:35.027Z,20.30
2023-03-07T21:36:02.808Z,20.30
2023-03-07T21:38:29.828Z,20.20
2023-03-07T21:40:56.489Z,20.30
2023-03-07T21:43:23.331Z,20.20
2023-03-07T21:45:50.419Z,20.20
2023-03-07T21:48:17.249Z,20.20
2023-03-07T21:50:45.184Z,20.20
2023-03-07T21:53:12.370Z,20.20
2023-03-07T21:55:39.403Z,20.10
2023-03-07T21:58:06.834Z,20.10
2023-03-07T22:00:33.477Z,20.10
2023-03-07T22:03:00.104Z,20.10
2023-03-07T22:05:26.715Z,20.10
2023-03-07T22:07:53.308Z,20.00
2023-03-07T22:10:20.041Z,20.10
2023-03-07T22:12:46.673Z,20.10
2023-03-07T22:15:13.247Z,20.10
2023-03-07T22:17:39.843Z,20.10
2023-03-07T22:20:06.994Z,20.10
2023-03-07T22:22:33.622Z,20.10
2023-03-07T22:25:00.263Z,20.00
2023-03-07T22:27:26.872Z,20.00
2023-03-07T22:29:53.545Z,20.00
2023-03-07T22:32:20.230Z,20.00
2023-03-07T22:34:46.838Z,20.00
2023-03-07T22:37:13.592Z,19.90
2023-03-07T22:39:40.214Z,19.90
2023-03-07T22:42:07.038Z,19.90
2023-03-07T22:44:33.695Z,19.90
2023-03-07T22:47:00.324Z,19.90
2023-03-07T22:49:27.251Z,19.90
2023-03-07T22:51:54.099Z,19.90
2023-03-07T22:54:20.822Z,19.90
2023-03-07T22:56:47.594Z,19.90
2023-03-07T22:59:14.246Z,19.90
2023-03-07T23:01:40.854Z,19.90
2023-03-07T23:04:09.240Z,19.90
2023-03-07T23:06:37.479Z,19.90
2023-03-07T23:09:06.174Z,19.90
2023-03-07T23:11:33.842Z,19.90
2023-03-07T23:14:00.786Z,19.90
2023-03-07T23:16:30.036Z,19.90
2023-03-07T23:18:58.362Z,19.80
2023-03-07T23:21:29.069Z,19.80
2023-03-07T23:23:56.610Z,19.80
2023-03-07T23:26:32.934Z,19.80
2023-03-07T23:29:00.222Z,19.80
2023-03-07T23:31:29.951Z,19.80
2023-03-07T23:33:58.227Z,19.80
2023-03-07T23:36:26.220Z,19.80
2023-03-07T23:38:52.930Z,19.80
2023-03-07T23:41:20.304Z,19.80
2023-03-07T23:43:50.644Z,19.80
2023-03-07T23:46:17.287Z,19.70
2023-03-07T23:48:43.883Z,19.80
2023-03-07T23:51:10.696Z,19.70
2023-03-07T23:53:37.569Z,19.70
2023-03-07T23:56:08.290Z,19.70
2023-03-07T23:58:36.003Z,19.70
